sensor_id;sensor_type;location;lat;lon;timestamp;temperature;humidity
78315;SHT31;68596;52.080;4.662;2023-04-24T00:02:24;13.07;76.05
78315;SHT31;68596;52.080;4.662;2023-04-24T00:05:10;13.08;75.94
78315;SHT31;68596;52.080;4.662;2023-04-24T00:07:54;13.08;75.98
78315;SHT31;68596;52.080;4.662;2023-04-24T00:10:39;13.11;76.03
78315;SHT31;68596;52.080;4.662;2023-04-24T00:13:23;13.12;75.99
78315;SHT31;68596;52.080;4.662;2023-04-24T00:16:07;13.16;75.80
78315;SHT31;68596;52.080;4.662;2023-04-24T00:18:52;13.19;75.49
78315;SHT31;68596;52.080;4.662;2023-04-24T00:21:40;13.18;75.85
78315;SHT31;68596;52.080;4.662;2023-04-24T00:24:25;13.14;76.00
78315;SHT31;68596;52.080;4.662;2023-04-24T00:27:10;13.11;75.99
78315;SHT31;68596;52.080;4.662;2023-04-24T00:29:54;13.10;76.31
78315;SHT31;68596;52.080;4.662;2023-04-24T00:32:38;13.04;76.30
78315;SHT31;68596;52.080;4.662;2023-04-24T00:35:22;13.04;76.20
78315;SHT31;68596;52.080;4.662;2023-04-24T00:38:07;13.05;76.12
78315;SHT31;68596;52.080;4.662;2023-04-24T00:40:51;13.07;76.05
78315;SHT31;68596;52.080;4.662;2023-04-24T00:43:35;13.08;75.68
78315;SHT31;68596;52.080;4.662;2023-04-24T00:46:20;13.11;75.87
78315;SHT31;68596;52.080;4.662;2023-04-24T00:49:05;13.10;75.81
78315;SHT31;68596;52.080;4.662;2023-04-24T00:51:49;13.08;75.81
78315;SHT31;68596;52.080;4.662;2023-04-24T00:54:35;13.00;76.06
78315;SHT31;68596;52.080;4.662;2023-04-24T00:57:20;12.98;76.18
78315;SHT31;68596;52.080;4.662;2023-04-24T01:00:06;13.01;76.48
78315;SHT31;68596;52.080;4.662;2023-04-24T01:02:55;13.01;76.18
78315;SHT31;68596;52.080;4.662;2023-04-24T01:05:39;13.02;75.87
78315;SHT31;68596;52.080;4.662;2023-04-24T01:08:24;13.01;75.98
78315;SHT31;68596;52.080;4.662;2023-04-24T01:11:10;13.02;75.87
78315;SHT31;68596;52.080;4.662;2023-04-24T01:13:54;13.04;75.96
78315;SHT31;68596;52.080;4.662;2023-04-24T01:16:38;13.05;75.79
78315;SHT31;68596;52.080;4.662;2023-04-24T01:19:23;13.05;75.97
78315;SHT31;68596;52.080;4.662;2023-04-24T01:22:10;13.02;75.75
78315;SHT31;68596;52.080;4.662;2023-04-24T01:24:56;13.00;76.05
78315;SHT31;68596;52.080;4.662;2023-04-24T01:27:40;13.00;75.95
78315;SHT31;68596;52.080;4.662;2023-04-24T01:30:24;13.01;75.82
78315;SHT31;68596;52.080;4.662;2023-04-24T01:33:09;13.02;76.10
78315;SHT31;68596;52.080;4.662;2023-04-24T01:35:54;12.97;75.83
78315;SHT31;68596;52.080;4.662;2023-04-24T01:38:39;12.97;75.97
78315;SHT31;68596;52.080;4.662;2023-04-24T01:41:23;12.95;75.87
78315;SHT31;68596;52.080;4.662;2023-04-24T01:44:08;12.98;76.15
78315;SHT31;68596;52.080;4.662;2023-04-24T01:46:54;12.98;76.20
78315;SHT31;68596;52.080;4.662;2023-04-24T01:49:39;13.00;76.27
78315;SHT31;68596;52.080;4.662;2023-04-24T01:52:23;13.04;76.04
78315;SHT31;68596;52.080;4.662;2023-04-24T01:55:08;13.00;75.91
78315;SHT31;68596;52.080;4.662;2023-04-24T01:57:55;12.95;76.01
78315;SHT31;68596;52.080;4.662;2023-04-24T02:00:40;12.92;76.12
78315;SHT31;68596;52.080;4.662;2023-04-24T02:03:26;12.87;76.11
78315;SHT31;68596;52.080;4.662;2023-04-24T02:06:10;12.88;76.35
78315;SHT31;68596;52.080;4.662;2023-04-24T02:08:54;12.85;76.23
78315;SHT31;68596;52.080;4.662;2023-04-24T02:11:38;12.88;76.52
78315;SHT31;68596;52.080;4.662;2023-04-24T02:14:22;12.91;76.08
78315;SHT31;68596;52.080;4.662;2023-04-24T02:17:06;12.91;76.36
78315;SHT31;68596;52.080;4.662;2023-04-24T02:19:51;12.94;76.12
78315;SHT31;68596;52.080;4.662;2023-04-24T02:22:35;12.98;76.24
78315;SHT31;68596;52.080;4.662;2023-04-24T02:25:19;12.97;75.74
78315;SHT31;68596;52.080;4.662;2023-04-24T02:28:03;13.00;75.98
78315;SHT31;68596;52.080;4.662;2023-04-24T02:30:47;12.94;75.86
78315;SHT31;68596;52.080;4.662;2023-04-24T02:33:31;12.88;76.01
78315;SHT31;68596;52.080;4.662;2023-04-24T02:36:15;12.88;75.82
78315;SHT31;68596;52.080;4.662;2023-04-24T02:38:59;12.83;76.00
78315;SHT31;68596;52.080;4.662;2023-04-24T02:41:45;12.80;76.41
78315;SHT31;68596;52.080;4.662;2023-04-24T02:44:29;12.83;76.55
78315;SHT31;68596;52.080;4.662;2023-04-24T02:47:13;12.81;76.18
78315;SHT31;68596;52.080;4.662;2023-04-24T02:49:57;12.80;76.29
78315;SHT31;68596;52.080;4.662;2023-04-24T02:52:41;12.76;76.16
78315;SHT31;68596;52.080;4.662;2023-04-24T02:55:26;12.77;76.13
78315;SHT31;68596;52.080;4.662;2023-04-24T02:58:10;12.70;76.12
78315;SHT31;68596;52.080;4.662;2023-04-24T03:00:56;12.64;76.25
78315;SHT31;68596;52.080;4.662;2023-04-24T03:03:40;12.67;76.49
78315;SHT31;68596;52.080;4.662;2023-04-24T03:06:24;12.71;76.15
78315;SHT31;68596;52.080;4.662;2023-04-24T03:09:08;12.74;76.04
78315;SHT31;68596;52.080;4.662;2023-04-24T03:11:52;12.70;76.21
78315;SHT31;68596;52.080;4.662;2023-04-24T03:14:36;12.64;76.15
78315;SHT31;68596;52.080;4.662;2023-04-24T03:17:20;12.65;76.30
78315;SHT31;68596;52.080;4.662;2023-04-24T03:20:05;12.68;76.19
78315;SHT31;68596;52.080;4.662;2023-04-24T03:22:49;12.68;76.18
78315;SHT31;68596;52.080;4.662;2023-04-24T03:25:33;12.70;76.12
78315;SHT31;68596;52.080;4.662;2023-04-24T03:28:17;12.70;75.90
78315;SHT31;68596;52.080;4.662;2023-04-24T03:31:03;12.67;75.86
78315;SHT31;68596;52.080;4.662;2023-04-24T03:33:47;12.60;76.30
78315;SHT31;68596;52.080;4.662;2023-04-24T03:36:31;12.59;76.13
78315;SHT31;68596;52.080;4.662;2023-04-24T03:39:15;12.53;76.30
78315;SHT31;68596;52.080;4.662;2023-04-24T03:42:00;12.51;76.51
78315;SHT31;68596;52.080;4.662;2023-04-24T03:44:44;12.46;76.44
78315;SHT31;68596;52.080;4.662;2023-04-24T03:47:28;12.50;76.61
78315;SHT31;68596;52.080;4.662;2023-04-24T03:50:12;12.50;76.62
78315;SHT31;68596;52.080;4.662;2023-04-24T03:52:56;12.41;76.64
78315;SHT31;68596;52.080;4.662;2023-04-24T03:55:40;12.41;76.66
78315;SHT31;68596;52.080;4.662;2023-04-24T03:58:24;12.40;76.62
78315;SHT31;68596;52.080;4.662;2023-04-24T04:01:08;12.40;76.48
78315;SHT31;68596;52.080;4.662;2023-04-24T04:03:52;12.33;76.48
78315;SHT31;68596;52.080;4.662;2023-04-24T04:06:37;12.37;76.51
78315;SHT31;68596;52.080;4.662;2023-04-24T04:09:21;12.32;76.82
78315;SHT31;68596;52.080;4.662;2023-04-24T04:12:05;12.26;76.82
78315;SHT31;68596;52.080;4.662;2023-04-24T04:14:49;12.25;76.74
78315;SHT31;68596;52.080;4.662;2023-04-24T04:17:33;12.26;76.51
78315;SHT31;68596;52.080;4.662;2023-04-24T04:20:17;12.28;76.77
78315;SHT31;68596;52.080;4.662;2023-04-24T04:23:01;12.30;76.51
78315;SHT31;68596;52.080;4.662;2023-04-24T04:25:45;12.33;76.34
78315;SHT31;68596;52.080;4.662;2023-04-24T04:28:30;12.34;76.13
78315;SHT31;68596;52.080;4.662;2023-04-24T04:31:15;12.30;76.34
78315;SHT31;68596;52.080;4.662;2023-04-24T04:33:59;12.32;76.54
78315;SHT31;68596;52.080;4.662;2023-04-24T04:36:45;12.36;76.08
78315;SHT31;68596;52.080;4.662;2023-04-24T04:39:30;12.33;76.02
78315;SHT31;68596;52.080;4.662;2023-04-24T04:42:14;12.30;75.88
78315;SHT31;68596;52.080;4.662;2023-04-24T04:45:01;12.29;76.44
78315;SHT31;68596;52.080;4.662;2023-04-24T04:47:46;12.22;76.44
78315;SHT31;68596;52.080;4.662;2023-04-24T04:50:30;12.28;76.48
78315;SHT31;68596;52.080;4.662;2023-04-24T04:53:15;12.28;76.87
78315;SHT31;68596;52.080;4.662;2023-04-24T04:55:59;12.28;77.25
78315;SHT31;68596;52.080;4.662;2023-04-24T04:58:43;12.15;77.90
78315;SHT31;68596;52.080;4.662;2023-04-24T05:01:27;12.05;77.84
78315;SHT31;68596;52.080;4.662;2023-04-24T05:04:11;12.02;78.96
78315;SHT31;68596;52.080;4.662;2023-04-24T05:06:55;11.95;78.83
78315;SHT31;68596;52.080;4.662;2023-04-24T05:09:40;11.83;79.20
78315;SHT31;68596;52.080;4.662;2023-04-24T05:12:24;11.67;79.89
78315;SHT31;68596;52.080;4.662;2023-04-24T05:15:08;11.51;80.19
78315;SHT31;68596;52.080;4.662;2023-04-24T05:17:53;11.41;80.61
78315;SHT31;68596;52.080;4.662;2023-04-24T05:20:37;11.32;80.82
78315;SHT31;68596;52.080;4.662;2023-04-24T05:23:21;11.32;81.16
78315;SHT31;68596;52.080;4.662;2023-04-24T05:26:05;11.28;80.69
78315;SHT31;68596;52.080;4.662;2023-04-24T05:28:49;11.14;80.14
78315;SHT31;68596;52.080;4.662;2023-04-24T05:31:33;11.01;80.66
78315;SHT31;68596;52.080;4.662;2023-04-24T05:34:17;11.01;81.03
78315;SHT31;68596;52.080;4.662;2023-04-24T05:37:01;10.99;80.63
78315;SHT31;68596;52.080;4.662;2023-04-24T05:39:45;10.99;80.52
78315;SHT31;68596;52.080;4.662;2023-04-24T05:42:30;11.06;80.61
78315;SHT31;68596;52.080;4.662;2023-04-24T05:45:14;11.13;80.17
78315;SHT31;68596;52.080;4.662;2023-04-24T05:48:00;11.11;80.03
78315;SHT31;68596;52.080;4.662;2023-04-24T05:50:44;11.08;79.99
78315;SHT31;68596;52.080;4.662;2023-04-24T05:53:28;11.07;79.78
78315;SHT31;68596;52.080;4.662;2023-04-24T05:56:12;11.07;79.07
78315;SHT31;68596;52.080;4.662;2023-04-24T05:58:56;11.01;79.00
78315;SHT31;68596;52.080;4.662;2023-04-24T06:01:40;11.01;78.86
78315;SHT31;68596;52.080;4.662;2023-04-24T06:04:25;11.03;79.05
78315;SHT31;68596;52.080;4.662;2023-04-24T06:07:11;11.00;79.06
78315;SHT31;68596;52.080;4.662;2023-04-24T06:09:55;11.00;78.77
78315;SHT31;68596;52.080;4.662;2023-04-24T06:12:40;11.06;78.92
78315;SHT31;68596;52.080;4.662;2023-04-24T06:15:24;11.14;78.96
78315;SHT31;68596;52.080;4.662;2023-04-24T06:18:08;11.08;78.82
78315;SHT31;68596;52.080;4.662;2023-04-24T06:20:54;11.08;79.37
78315;SHT31;68596;52.080;4.662;2023-04-24T06:23:39;11.06;78.93
78315;SHT31;68596;52.080;4.662;2023-04-24T06:26:23;11.04;79.09
78315;SHT31;68596;52.080;4.662;2023-04-24T06:29:08;11.04;78.88
78315;SHT31;68596;52.080;4.662;2023-04-24T06:31:53;10.99;78.79
78315;SHT31;68596;52.080;4.662;2023-04-24T06:34:37;11.01;79.15
78315;SHT31;68596;52.080;4.662;2023-04-24T06:37:21;11.01;78.63
78315;SHT31;68596;52.080;4.662;2023-04-24T06:40:06;11.03;78.88
78315;SHT31;68596;52.080;4.662;2023-04-24T06:42:50;11.08;78.70
78315;SHT31;68596;52.080;4.662;2023-04-24T06:45:34;11.08;78.57
78315;SHT31;68596;52.080;4.662;2023-04-24T06:48:18;11.07;78.06
78315;SHT31;68596;52.080;4.662;2023-04-24T06:51:02;11.08;78.54
78315;SHT31;68596;52.080;4.662;2023-04-24T06:53:46;11.06;78.12
78315;SHT31;68596;52.080;4.662;2023-04-24T06:56:31;11.14;78.66
78315;SHT31;68596;52.080;4.662;2023-04-24T06:59:15;11.11;77.86
78315;SHT31;68596;52.080;4.662;2023-04-24T07:01:59;11.13;77.47
78315;SHT31;68596;52.080;4.662;2023-04-24T07:04:43;11.15;77.80
78315;SHT31;68596;52.080;4.662;2023-04-24T07:07:27;11.18;77.51
78315;SHT31;68596;52.080;4.662;2023-04-24T07:10:12;11.25;77.90
78315;SHT31;68596;52.080;4.662;2023-04-24T07:13:01;11.25;77.24
78315;SHT31;68596;52.080;4.662;2023-04-24T07:15:46;11.27;77.31
78315;SHT31;68596;52.080;4.662;2023-04-24T07:18:30;11.27;77.03
78315;SHT31;68596;52.080;4.662;2023-04-24T07:21:14;11.21;76.97
78315;SHT31;68596;52.080;4.662;2023-04-24T07:23:58;11.14;77.23
78315;SHT31;68596;52.080;4.662;2023-04-24T07:26:42;11.11;77.30
78315;SHT31;68596;52.080;4.662;2023-04-24T07:29:30;11.08;76.82
78315;SHT31;68596;52.080;4.662;2023-04-24T07:32:14;11.08;76.46
78315;SHT31;68596;52.080;4.662;2023-04-24T07:34:58;11.07;76.22
78315;SHT31;68596;52.080;4.662;2023-04-24T07:37:42;11.03;76.70
78315;SHT31;68596;52.080;4.662;2023-04-24T07:40:29;11.08;77.03
78315;SHT31;68596;52.080;4.662;2023-04-24T07:43:13;11.07;75.26
78315;SHT31;68596;52.080;4.662;2023-04-24T07:46:01;11.07;75.64
78315;SHT31;68596;52.080;4.662;2023-04-24T07:48:45;11.11;75.38
78315;SHT31;68596;52.080;4.662;2023-04-24T07:51:31;11.13;75.52
78315;SHT31;68596;52.080;4.662;2023-04-24T07:54:18;11.15;76.15
78315;SHT31;68596;52.080;4.662;2023-04-24T07:57:03;11.20;75.18
78315;SHT31;68596;52.080;4.662;2023-04-24T07:59:47;11.24;74.80
78315;SHT31;68596;52.080;4.662;2023-04-24T08:02:31;11.25;74.92
78315;SHT31;68596;52.080;4.662;2023-04-24T08:05:16;11.25;74.53
78315;SHT31;68596;52.080;4.662;2023-04-24T08:08:00;11.25;74.18
78315;SHT31;68596;52.080;4.662;2023-04-24T08:10:44;11.18;74.52
78315;SHT31;68596;52.080;4.662;2023-04-24T08:13:27;11.17;74.38
78315;SHT31;68596;52.080;4.662;2023-04-24T08:16:12;11.15;74.17
78315;SHT31;68596;52.080;4.662;2023-04-24T08:18:56;11.14;74.43
78315;SHT31;68596;52.080;4.662;2023-04-24T08:21:40;11.15;74.05
78315;SHT31;68596;52.080;4.662;2023-04-24T08:24:24;11.15;73.76
78315;SHT31;68596;52.080;4.662;2023-04-24T08:27:09;11.14;74.17
78315;SHT31;68596;52.080;4.662;2023-04-24T08:29:54;11.15;74.17
78315;SHT31;68596;52.080;4.662;2023-04-24T08:32:38;11.24;73.40
78315;SHT31;68596;52.080;4.662;2023-04-24T08:35:22;11.25;73.30
78315;SHT31;68596;52.080;4.662;2023-04-24T08:38:06;11.30;72.75
78315;SHT31;68596;52.080;4.662;2023-04-24T08:40:51;11.37;72.36
78315;SHT31;68596;52.080;4.662;2023-04-24T08:43:35;11.42;72.51
78315;SHT31;68596;52.080;4.662;2023-04-24T08:46:20;11.45;70.61
78315;SHT31;68596;52.080;4.662;2023-04-24T08:49:05;11.42;70.31
78315;SHT31;68596;52.080;4.662;2023-04-24T08:51:50;11.42;69.96
78315;SHT31;68596;52.080;4.662;2023-04-24T08:54:36;11.41;70.47
78315;SHT31;68596;52.080;4.662;2023-04-24T08:57:20;11.35;70.58
78315;SHT31;68596;52.080;4.662;2023-04-24T09:00:05;11.31;69.51
78315;SHT31;68596;52.080;4.662;2023-04-24T09:02:52;11.30;70.14
78315;SHT31;68596;52.080;4.662;2023-04-24T09:05:37;11.28;71.34
78315;SHT31;68596;52.080;4.662;2023-04-24T09:08:24;11.32;71.37
78315;SHT31;68596;52.080;4.662;2023-04-24T09:11:09;11.34;71.46
78315;SHT31;68596;52.080;4.662;2023-04-24T09:13:54;11.35;72.55
78315;SHT31;68596;52.080;4.662;2023-04-24T09:16:39;11.38;71.68
78315;SHT31;68596;52.080;4.662;2023-04-24T09:19:23;11.45;69.88
78315;SHT31;68596;52.080;4.662;2023-04-24T09:22:09;11.44;70.88
78315;SHT31;68596;52.080;4.662;2023-04-24T09:25:06;11.44;70.15
78315;SHT31;68596;52.080;4.662;2023-04-24T09:27:53;11.34;69.88
78315;SHT31;68596;52.080;4.662;2023-04-24T09:30:38;11.30;69.77
78315;SHT31;68596;52.080;4.662;2023-04-24T09:33:22;11.28;70.80
78315;SHT31;68596;52.080;4.662;2023-04-24T09:36:06;11.34;71.10
78315;SHT31;68596;52.080;4.662;2023-04-24T09:38:55;11.39;69.89
78315;SHT31;68596;52.080;4.662;2023-04-24T09:41:50;11.45;69.81
78315;SHT31;68596;52.080;4.662;2023-04-24T09:44:34;11.52;68.83
78315;SHT31;68596;52.080;4.662;2023-04-24T09:47:18;11.57;68.17
78315;SHT31;68596;52.080;4.662;2023-04-24T09:50:17;11.51;68.62
78315;SHT31;68596;52.080;4.662;2023-04-24T09:53:03;11.52;68.88
78315;SHT31;68596;52.080;4.662;2023-04-24T09:55:47;11.48;68.90
78315;SHT31;68596;52.080;4.662;2023-04-24T09:58:35;11.48;68.68
78315;SHT31;68596;52.080;4.662;2023-04-24T10:01:30;11.45;69.20
78315;SHT31;68596;52.080;4.662;2023-04-24T10:04:19;11.45;70.76
78315;SHT31;68596;52.080;4.662;2023-04-24T10:07:05;11.44;71.04
78315;SHT31;68596;52.080;4.662;2023-04-24T10:09:50;11.42;72.08
78315;SHT31;68596;52.080;4.662;2023-04-24T10:12:35;11.42;71.88
78315;SHT31;68596;52.080;4.662;2023-04-24T10:15:20;11.47;72.34
78315;SHT31;68596;52.080;4.662;2023-04-24T10:18:05;11.48;72.76
78315;SHT31;68596;52.080;4.662;2023-04-24T10:20:53;11.54;72.56
78315;SHT31;68596;52.080;4.662;2023-04-24T10:23:39;11.59;72.45
78315;SHT31;68596;52.080;4.662;2023-04-24T10:26:25;11.65;72.79
78315;SHT31;68596;52.080;4.662;2023-04-24T10:29:12;11.71;72.34
78315;SHT31;68596;52.080;4.662;2023-04-24T10:31:56;11.76;72.02
78315;SHT31;68596;52.080;4.662;2023-04-24T10:34:40;11.85;71.29
78315;SHT31;68596;52.080;4.662;2023-04-24T10:37:26;11.86;70.70
78315;SHT31;68596;52.080;4.662;2023-04-24T10:40:17;11.95;69.41
78315;SHT31;68596;52.080;4.662;2023-04-24T10:43:03;11.96;69.66
78315;SHT31;68596;52.080;4.662;2023-04-24T10:46:06;12.09;69.13
78315;SHT31;68596;52.080;4.662;2023-04-24T10:48:54;12.13;70.01
78315;SHT31;68596;52.080;4.662;2023-04-24T10:51:53;12.20;68.84
78315;SHT31;68596;52.080;4.662;2023-04-24T10:54:44;12.15;69.27
78315;SHT31;68596;52.080;4.662;2023-04-24T10:57:29;12.15;68.76
78315;SHT31;68596;52.080;4.662;2023-04-24T11:00:19;12.13;69.63
78315;SHT31;68596;52.080;4.662;2023-04-24T11:06:09;11.99;70.05
78315;SHT31;68596;52.080;4.662;2023-04-24T11:09:02;11.98;70.99
78315;SHT31;68596;52.080;4.662;2023-04-24T11:11:47;12.06;71.83
78315;SHT31;68596;52.080;4.662;2023-04-24T11:14:59;12.16;72.29
78315;SHT31;68596;52.080;4.662;2023-04-24T11:17:44;12.19;71.64
78315;SHT31;68596;52.080;4.662;2023-04-24T11:20:28;12.16;71.19
78315;SHT31;68596;52.080;4.662;2023-04-24T11:23:13;12.15;70.40
78315;SHT31;68596;52.080;4.662;2023-04-24T11:26:11;12.15;69.29
78315;SHT31;68596;52.080;4.662;2023-04-24T11:29:06;11.99;67.87
78315;SHT31;68596;52.080;4.662;2023-04-24T11:31:51;11.79;69.75
78315;SHT31;68596;52.080;4.662;2023-04-24T11:34:38;11.79;70.37
78315;SHT31;68596;52.080;4.662;2023-04-24T11:37:30;11.81;70.84
78315;SHT31;68596;52.080;4.662;2023-04-24T11:40:19;11.89;70.10
78315;SHT31;68596;52.080;4.662;2023-04-24T11:43:04;11.92;69.49
78315;SHT31;68596;52.080;4.662;2023-04-24T11:45:49;11.92;69.83
78315;SHT31;68596;52.080;4.662;2023-04-24T11:48:36;11.98;69.91
78315;SHT31;68596;52.080;4.662;2023-04-24T11:51:25;11.98;70.01
78315;SHT31;68596;52.080;4.662;2023-04-24T11:54:10;12.02;70.21
78315;SHT31;68596;52.080;4.662;2023-04-24T11:56:56;12.06;69.07
78315;SHT31;68596;52.080;4.662;2023-04-24T11:59:40;12.08;69.53
78315;SHT31;68596;52.080;4.662;2023-04-24T12:02:26;12.18;68.96
78315;SHT31;68596;52.080;4.662;2023-04-24T12:05:21;12.20;69.19
78315;SHT31;68596;52.080;4.662;2023-04-24T12:08:06;12.20;66.42
78315;SHT31;68596;52.080;4.662;2023-04-24T12:10:51;12.19;67.17
78315;SHT31;68596;52.080;4.662;2023-04-24T12:13:35;12.13;68.63
78315;SHT31;68596;52.080;4.662;2023-04-24T12:16:20;12.09;69.77
78315;SHT31;68596;52.080;4.662;2023-04-24T12:19:04;12.10;69.79
78315;SHT31;68596;52.080;4.662;2023-04-24T12:22:04;12.19;69.09
78315;SHT31;68596;52.080;4.662;2023-04-24T12:24:56;12.16;68.58
78315;SHT31;68596;52.080;4.662;2023-04-24T12:27:40;12.18;69.59
78315;SHT31;68596;52.080;4.662;2023-04-24T12:30:30;12.15;69.87
78315;SHT31;68596;52.080;4.662;2023-04-24T12:33:21;12.23;69.30
78315;SHT31;68596;52.080;4.662;2023-04-24T12:36:06;12.25;69.07
78315;SHT31;68596;52.080;4.662;2023-04-24T12:38:52;12.29;68.29
78315;SHT31;68596;52.080;4.662;2023-04-24T12:41:37;12.37;68.09
78315;SHT31;68596;52.080;4.662;2023-04-24T12:47:15;12.51;67.05
78315;SHT31;68596;52.080;4.662;2023-04-24T12:50:00;12.53;66.18
78315;SHT31;68596;52.080;4.662;2023-04-24T12:52:44;12.56;65.52
78315;SHT31;68596;52.080;4.662;2023-04-24T12:55:28;12.59;67.44
78315;SHT31;68596;52.080;4.662;2023-04-24T12:58:13;12.61;67.62
78315;SHT31;68596;52.080;4.662;2023-04-24T13:00:58;12.65;66.38
78315;SHT31;68596;52.080;4.662;2023-04-24T13:03:42;12.64;67.49
78315;SHT31;68596;52.080;4.662;2023-04-24T13:06:27;12.73;66.29
78315;SHT31;68596;52.080;4.662;2023-04-24T13:09:11;12.79;67.05
78315;SHT31;68596;52.080;4.662;2023-04-24T13:11:55;12.79;66.18
78315;SHT31;68596;52.080;4.662;2023-04-24T13:14:41;12.83;66.21
78315;SHT31;68596;52.080;4.662;2023-04-24T13:17:24;12.83;63.86
78315;SHT31;68596;52.080;4.662;2023-04-24T13:20:09;12.80;65.63
78315;SHT31;68596;52.080;4.662;2023-04-24T13:22:53;12.79;64.75
78315;SHT31;68596;52.080;4.662;2023-04-24T13:25:37;12.74;64.11
78315;SHT31;68596;52.080;4.662;2023-04-24T13:28:22;12.70;65.08
78315;SHT31;68596;52.080;4.662;2023-04-24T13:31:06;12.74;64.48
78315;SHT31;68596;52.080;4.662;2023-04-24T13:33:50;12.80;65.42
78315;SHT31;68596;52.080;4.662;2023-04-24T13:36:34;12.88;65.73
78315;SHT31;68596;52.080;4.662;2023-04-24T13:39:19;12.97;65.12
78315;SHT31;68596;52.080;4.662;2023-04-24T13:42:03;13.00;65.33
78315;SHT31;68596;52.080;4.662;2023-04-24T13:44:47;13.02;62.63
78315;SHT31;68596;52.080;4.662;2023-04-24T13:47:31;13.02;63.76
78315;SHT31;68596;52.080;4.662;2023-04-24T13:50:15;12.95;63.51
78315;SHT31;68596;52.080;4.662;2023-04-24T13:52:59;13.00;64.43
78315;SHT31;68596;52.080;4.662;2023-04-24T13:55:44;13.01;65.60
78315;SHT31;68596;52.080;4.662;2023-04-24T13:58:29;13.05;64.93
78315;SHT31;68596;52.080;4.662;2023-04-24T14:01:14;13.07;65.15
78315;SHT31;68596;52.080;4.662;2023-04-24T14:03:59;13.10;65.03
78315;SHT31;68596;52.080;4.662;2023-04-24T14:06:44;13.10;64.53
78315;SHT31;68596;52.080;4.662;2023-04-24T14:09:28;13.02;63.92
78315;SHT31;68596;52.080;4.662;2023-04-24T14:12:13;12.94;64.66
78315;SHT31;68596;52.080;4.662;2023-04-24T14:15:00;12.79;66.64
78315;SHT31;68596;52.080;4.662;2023-04-24T14:17:45;12.74;67.28
78315;SHT31;68596;52.080;4.662;2023-04-24T14:20:29;12.74;68.14
78315;SHT31;68596;52.080;4.662;2023-04-24T14:23:13;12.70;67.83
78315;SHT31;68596;52.080;4.662;2023-04-24T14:25:58;12.70;67.76
78315;SHT31;68596;52.080;4.662;2023-04-24T14:28:42;12.73;67.79
78315;SHT31;68596;52.080;4.662;2023-04-24T14:31:30;12.71;67.59
78315;SHT31;68596;52.080;4.662;2023-04-24T14:34:14;12.74;67.69
78315;SHT31;68596;52.080;4.662;2023-04-24T14:36:58;12.76;67.33
78315;SHT31;68596;52.080;4.662;2023-04-24T14:39:42;12.81;67.16
78315;SHT31;68596;52.080;4.662;2023-04-24T14:42:27;12.84;65.88
78315;SHT31;68596;52.080;4.662;2023-04-24T14:45:12;12.81;66.37
78315;SHT31;68596;52.080;4.662;2023-04-24T14:47:58;12.74;66.70
78315;SHT31;68596;52.080;4.662;2023-04-24T14:50:42;12.77;65.53
78315;SHT31;68596;52.080;4.662;2023-04-24T14:53:26;12.74;66.03
78315;SHT31;68596;52.080;4.662;2023-04-24T14:56:10;12.76;65.65
78315;SHT31;68596;52.080;4.662;2023-04-24T14:58:55;12.74;65.39
78315;SHT31;68596;52.080;4.662;2023-04-24T15:01:39;12.76;65.74
78315;SHT31;68596;52.080;4.662;2023-04-24T15:04:24;12.73;66.28
78315;SHT31;68596;52.080;4.662;2023-04-24T15:07:17;12.73;64.56
78315;SHT31;68596;52.080;4.662;2023-04-24T15:10:02;12.71;65.47
78315;SHT31;68596;52.080;4.662;2023-04-24T15:12:46;12.74;65.77
78315;SHT31;68596;52.080;4.662;2023-04-24T15:15:30;12.74;65.60
78315;SHT31;68596;52.080;4.662;2023-04-24T15:18:14;12.71;65.66
78315;SHT31;68596;52.080;4.662;2023-04-24T15:20:58;12.68;64.57
78315;SHT31;68596;52.080;4.662;2023-04-24T15:23:42;12.63;65.39
78315;SHT31;68596;52.080;4.662;2023-04-24T15:26:26;12.63;65.29
78315;SHT31;68596;52.080;4.662;2023-04-24T15:29:10;12.65;65.53
78315;SHT31;68596;52.080;4.662;2023-04-24T15:31:54;12.70;64.23
78315;SHT31;68596;52.080;4.662;2023-04-24T15:34:39;12.68;64.58
78315;SHT31;68596;52.080;4.662;2023-04-24T15:37:23;12.67;65.29
78315;SHT31;68596;52.080;4.662;2023-04-24T15:40:07;12.68;64.41
78315;SHT31;68596;52.080;4.662;2023-04-24T15:42:52;12.68;64.62
78315;SHT31;68596;52.080;4.662;2023-04-24T15:45:36;12.70;64.73
78315;SHT31;68596;52.080;4.662;2023-04-24T15:48:20;12.68;64.43
78315;SHT31;68596;52.080;4.662;2023-04-24T15:51:04;12.61;63.39
78315;SHT31;68596;52.080;4.662;2023-04-24T15:53:48;12.63;64.04
78315;SHT31;68596;52.080;4.662;2023-04-24T15:56:32;12.57;64.46
78315;SHT31;68596;52.080;4.662;2023-04-24T15:59:17;12.57;63.37
78315;SHT31;68596;52.080;4.662;2023-04-24T16:02:01;12.56;63.98
78315;SHT31;68596;52.080;4.662;2023-04-24T16:04:48;12.50;63.22
78315;SHT31;68596;52.080;4.662;2023-04-24T16:07:33;12.51;64.20
78315;SHT31;68596;52.080;4.662;2023-04-24T16:10:17;12.49;62.82
78315;SHT31;68596;52.080;4.662;2023-04-24T16:13:01;12.43;62.44
78315;SHT31;68596;52.080;4.662;2023-04-24T16:15:47;12.36;63.49
78315;SHT31;68596;52.080;4.662;2023-04-24T16:18:31;12.34;62.68
78315;SHT31;68596;52.080;4.662;2023-04-24T16:21:15;12.30;64.07
78315;SHT31;68596;52.080;4.662;2023-04-24T16:23:59;12.32;64.11
78315;SHT31;68596;52.080;4.662;2023-04-24T16:26:43;12.32;64.63
78315;SHT31;68596;52.080;4.662;2023-04-24T16:29:29;12.30;64.97
78315;SHT31;68596;52.080;4.662;2023-04-24T16:32:13;12.30;65.27
78315;SHT31;68596;52.080;4.662;2023-04-24T16:34:58;12.32;65.33
78315;SHT31;68596;52.080;4.662;2023-04-24T16:37:42;12.34;65.11
78315;SHT31;68596;52.080;4.662;2023-04-24T16:40:26;12.30;64.38
78315;SHT31;68596;52.080;4.662;2023-04-24T16:43:10;12.33;64.84
78315;SHT31;68596;52.080;4.662;2023-04-24T16:45:55;12.33;65.05
78315;SHT31;68596;52.080;4.662;2023-04-24T16:48:39;12.32;65.63
78315;SHT31;68596;52.080;4.662;2023-04-24T16:51:23;12.32;65.73
78315;SHT31;68596;52.080;4.662;2023-04-24T16:54:08;12.32;65.37
78315;SHT31;68596;52.080;4.662;2023-04-24T16:56:53;12.25;64.77
78315;SHT31;68596;52.080;4.662;2023-04-24T16:59:37;12.25;65.02
78315;SHT31;68596;52.080;4.662;2023-04-24T17:02:21;12.23;64.33
78315;SHT31;68596;52.080;4.662;2023-04-24T17:05:06;12.18;65.10
78315;SHT31;68596;52.080;4.662;2023-04-24T17:07:50;12.15;64.36
78315;SHT31;68596;52.080;4.662;2023-04-24T17:10:35;12.15;64.52
78315;SHT31;68596;52.080;4.662;2023-04-24T17:13:19;12.13;64.52
78315;SHT31;68596;52.080;4.662;2023-04-24T17:16:03;12.13;63.93
78315;SHT31;68596;52.080;4.662;2023-04-24T17:18:47;12.10;65.09
78315;SHT31;68596;52.080;4.662;2023-04-24T17:21:31;12.05;65.35
78315;SHT31;68596;52.080;4.662;2023-04-24T17:24:16;12.08;65.39
78315;SHT31;68596;52.080;4.662;2023-04-24T17:27:00;12.08;65.58
78315;SHT31;68596;52.080;4.662;2023-04-24T17:29:45;12.09;65.97